Time;durP1;ratioP1;P1;durP2;ratioP2;P2;SDS_P1;SDS_P2;PMS_P1;PMS_P2;Temp;Humidity;BMP_temperature;BMP_pressure;BME280_temperature;BME280_humidity;BME280_pressure;Samples;Min_cycle;Max_cycle;Signal;HPM_P1;HPM_P2
2024/04/03 00:00:14;;;;;;;;;;;;;;;19.83;51.00;99982.38;2057437;28;6491;-69
2024/04/03 00:01:15;;;;;;;;;;;;;;;19.81;51.17;99979.41;2053805;28;2393;-68
2024/04/03 00:02:15;;;;;;;;;;;;;;;19.82;51.02;99984.50;2055830;28;2601;-68
2024/04/03 00:03:15;;;;;;;;;;;;;;;19.82;51.16;99980.91;2049510;28;2225;-68
2024/04/03 00:04:16;;;;;;;;;;;;;;;19.81;51.07;99976.53;2060966;28;2071;-69
2024/04/03 00:05:16;;;;;;;;;;;;;;;19.82;50.98;99980.91;2056513;28;2403;-68
2024/04/03 00:06:17;;;;;;;;;;;;;;;19.81;50.87;99976.53;2053948;28;2103;-69
2024/04/03 00:07:17;;;;;;;;;;;;;;;19.81;51.06;99980.19;2057052;28;2543;-68
2024/04/03 00:08:17;;;;;;;;;;;;;;;19.82;51.01;99972.28;2058356;28;1946;-67
2024/04/03 00:09:18;;;;;;;;;;;;;;;19.82;51.26;99978.03;2052400;28;2434;-68
2024/04/03 00:10:18;;;;;;;;;;;;;;;19.79;51.31;99980.09;2053839;28;2093;-68
2024/04/03 00:11:19;;;;;;;;;;;;;;;19.80;51.34;99969.34;2057699;28;2629;-68
2024/04/03 00:12:19;;;;;;;;;;;;;;;19.80;51.11;99970.06;2058748;28;1877;-68
2024/04/03 00:13:19;;;;;;;;;;;;;;;19.79;51.33;99971.50;2053624;28;2065;-69
2024/04/03 00:14:20;;;;;;;;;;;;;;;19.81;51.06;99976.53;2048424;28;2437;-69
2024/04/03 00:15:20;;;;;;;;;;;;;;;19.81;51.22;99973.66;2053373;28;2033;-69
2024/04/03 00:16:21;;;;;;;;;;;;;;;19.80;50.92;99975.81;2061660;28;2016;-69
2024/04/03 00:17:21;;;;;;;;;;;;;;;19.81;51.10;99979.41;2061119;28;2140;-69
2024/04/03 00:18:22;;;;;;;;;;;;;;;19.81;51.01;99977.31;2056036;28;2184;-69
2024/04/03 00:19:23;;;;;;;;;;;;;;;19.80;50.93;99972.22;2061075;28;2074;-68
2024/04/03 00:20:23;;;;;;;;;;;;;;;19.80;50.99;99978.69;2048546;28;2525;-69
2024/04/03 00:21:23;;;;;;;;;;;;;;;19.80;50.96;99972.22;2058875;28;1999;-69
2024/04/03 00:22:24;;;;;;;;;;;;;;;19.81;51.28;99968.69;2056068;28;1733;-68
2024/04/03 00:23:25;;;;;;;;;;;;;;;19.81;51.17;99970.81;2050071;28;1762;-69
2024/04/03 00:24:25;;;;;;;;;;;;;;;19.80;51.27;99972.94;2053853;28;2170;-69
2024/04/03 00:25:26;;;;;;;;;;;;;;;19.79;51.50;99970.72;2054313;28;1898;-68
2024/04/03 00:26:26;;;;;;;;;;;;;;;19.79;51.45;99971.50;2058418;28;2047;-69
2024/04/03 00:27:27;;;;;;;;;;;;;;;19.80;51.22;99972.94;2060730;28;2289;-68
2024/04/03 00:28:29;;;;;;;;;;;;;;;19.79;51.33;99970.72;2052807;28;2084;-68
2024/04/03 00:29:29;;;;;;;;;;;;;;;19.80;51.32;99972.22;2052628;28;2236;-68
2024/04/03 00:30:29;;;;;;;;;;;;;;;19.78;51.31;99980.75;2060431;28;6136;-69
2024/04/03 00:31:30;;;;;;;;;;;;;;;19.78;51.46;99975.75;2058210;28;1888;-67
2024/04/03 00:32:30;;;;;;;;;;;;;;;19.80;51.40;99977.97;2050516;28;2040;-68
2024/04/03 00:33:31;;;;;;;;;;;;;;;19.78;51.53;99975.75;2059239;28;2143;-69
2024/04/03 00:34:31;;;;;;;;;;;;;;;19.78;51.46;99972.13;2060424;28;2091;-69
2024/04/03 00:35:32;;;;;;;;;;;;;;;19.79;51.41;99985.09;2055256;28;1993;-69
2024/04/03 00:36:32;;;;;;;;;;;;;;;19.79;51.55;99976.47;2053120;28;2577;-69
2024/04/03 00:37:35;;;;;;;;;;;;;;;19.78;51.65;99972.88;2052596;28;2607;-69
2024/04/03 00:38:36;;;;;;;;;;;;;;;19.78;51.68;99980.75;2051124;28;2640;-69
2024/04/03 00:39:36;;;;;;;;;;;;;;;19.79;51.63;99976.47;2059348;28;1778;-69
2024/04/03 00:40:36;;;;;;;;;;;;;;;19.78;51.65;99969.28;2051843;28;2025;-69
2024/04/03 00:41:37;;;;;;;;;;;;;;;19.78;51.66;99975.00;2051204;28;2272;-69
2024/04/03 00:42:37;;;;;;;;;;;;;;;19.78;51.66;99975.00;2062495;28;2337;-68
2024/04/03 00:43:37;;;;;;;;;;;;;;;19.77;51.66;99968.53;2061552;28;1706;-68
2024/04/03 00:44:46;;;;;;;;;;;;;;;19.78;51.62;99975.75;2053134;28;2089;-69
2024/04/03 00:45:47;;;;;;;;;;;;;;;19.78;51.71;99970.00;2052352;28;2401;-69
2024/04/03 00:46:48;;;;;;;;;;;;;;;19.77;51.58;99974.28;2053348;28;1735;-69
2024/04/03 00:47:48;;;;;;;;;;;;;;;19.79;51.65;99973.59;2061702;28;2144;-69
2024/04/03 00:48:48;;;;;;;;;;;;;;;19.79;51.44;99976.47;2060418;28;1825;-69
2024/04/03 00:49:49;;;;;;;;;;;;;;;19.79;51.39;99970.72;2052211;28;1640;-68
2024/04/03 00:50:50;;;;;;;;;;;;;;;19.79;51.41;99971.50;2053535;28;2566;-68
2024/04/03 00:51:51;;;;;;;;;;;;;;;19.78;51.61;99963.53;2060575;28;2888;-69
2024/04/03 00:52:51;;;;;;;;;;;;;;;19.78;51.44;99963.53;2062020;28;1880;-69
2024/04/03 00:53:52;;;;;;;;;;;;;;;19.78;51.27;99964.25;2049890;28;2488;-69
2024/04/03 00:54:52;;;;;;;;;;;;;;;19.78;51.53;99964.25;2052878;28;2541;-68
2024/04/03 00:55:52;;;;;;;;;;;;;;;19.79;51.71;99964.97;2057092;28;2621;-68
2024/04/03 00:56:53;;;;;;;;;;;;;;;19.78;51.67;99970.00;2057446;28;2599;-69
2024/04/03 00:57:53;;;;;;;;;;;;;;;19.78;51.69;99967.13;2049135;28;2571;-69
2024/04/03 00:58:54;;;;;;;;;;;;;;;19.78;51.60;99967.13;2054034;28;2520;-69
2024/04/03 00:59:54;;;;;;;;;;;;;;;19.78;51.57;99957.78;2054761;28;2544;-69
2024/04/03 01:00:55;;;;;;;;;;;;;;;19.79;51.47;99964.97;2058466;28;6314;-69
2024/04/03 01:01:55;;;;;;;;;;;;;;;19.78;51.72;99964.25;2059196;28;1856;-68
2024/04/03 01:02:55;;;;;;;;;;;;;;;19.78;51.62;99969.28;2052341;28;1907;-69
2024/04/03 01:03:56;;;;;;;;;;;;;;;19.76;51.66;99961.31;2055679;28;2416;-69
2024/04/03 01:04:56;;;;;;;;;;;;;;;19.78;51.73;99957.78;2057179;28;2090;-69
2024/04/03 01:06:01;;;;;;;;;;;;;;;19.78;51.53;99972.13;2052667;28;2208;-68
2024/04/03 01:07:06;;;;;;;;;;;;;;;19.76;51.58;99972.78;2060803;28;2527;-69
2024/04/03 01:08:07;;;;;;;;;;;;;;;19.77;51.82;99970.66;2059709;28;2688;-68
2024/04/03 01:09:07;;;;;;;;;;;;;;;19.77;51.75;99956.28;2056394;28;2114;-68
2024/04/03 01:10:08;;;;;;;;;;;;;;;19.77;51.50;99970.66;2047991;28;2029;-68
2024/04/03 01:11:08;;;;;;;;;;;;;;;19.77;51.52;99967.78;2055206;28;2059;-68
2024/04/03 01:12:08;;;;;;;;;;;;;;;19.77;51.79;99967.78;2049416;28;2564;-68
2024/04/03 01:13:09;;;;;;;;;;;;;;;19.77;51.83;99967.78;2056628;28;2400;-68
2024/04/03 01:14:09;;;;;;;;;;;;;;;19.77;51.66;99959.91;2057221;28;2927;-68
2024/04/03 01:15:11;;;;;;;;;;;;;;;19.77;51.67;99964.91;2049591;28;2214;-68
2024/04/03 01:16:11;;;;;;;;;;;;;;;19.76;51.68;99958.44;2055715;28;2559;-68
2024/04/03 01:17:11;;;;;;;;;;;;;;;19.76;51.67;99954.84;2057131;28;2401;-68
2024/04/03 01:18:12;;;;;;;;;;;;;;;19.76;51.56;99957.72;2050918;28;1647;-67
2024/04/03 01:19:12;;;;;;;;;;;;;;;19.75;51.41;99956.97;2052186;28;2100;-68
2024/04/03 01:20:12;;;;;;;;;;;;;;;19.76;51.60;99960.56;2052707;28;2457;-68
2024/04/03 01:21:13;;;;;;;;;;;;;;;19.77;51.61;99967.78;2060923;28;2123;-69
2024/04/03 01:22:13;;;;;;;;;;;;;;;19.75;51.66;99956.97;2051809;28;2485;-69
2024/04/03 01:23:14;;;;;;;;;;;;;;;19.76;51.50;99954.84;2050129;28;1594;-69
2024/04/03 01:24:19;;;;;;;;;;;;;;;19.75;51.72;99956.25;2050601;28;1794;-69
2024/04/03 01:25:19;;;;;;;;;;;;;;;19.74;51.60;99952.63;2056859;28;2087;-69
2024/04/03 01:26:20;;;;;;;;;;;;;;;19.74;51.85;99949.00;2064478;28;1607;-67
2024/04/03 01:27:20;;;;;;;;;;;;;;;19.76;51.52;99957.72;2047745;28;2394;-68
2024/04/03 01:28:22;;;;;;;;;;;;;;;19.75;51.44;99959.84;2054104;28;2071;-68
2024/04/03 01:29:22;;;;;;;;;;;;;;;19.75;51.58;99947.63;2048317;28;2109;-68
2024/04/03 01:30:23;;;;;;;;;;;;;;;19.75;51.68;99959.13;2051757;28;6374;-69
2024/04/03 01:31:23;;;;;;;;;;;;;;;19.75;51.69;99953.38;2052857;28;1618;-68
2024/04/03 01:32:23;;;;;;;;;;;;;;;19.74;51.71;99949.00;2059591;28;2107;-68
2024/04/03 01:33:24;;;;;;;;;;;;;;;19.74;51.58;99954.75;2058752;28;2040;-68
2024/04/03 01:34:24;;;;;;;;;;;;;;;19.74;51.60;99949.00;2048987;28;2112;-69
2024/04/03 01:35:25;;;;;;;;;;;;;;;19.74;51.61;99946.88;2058327;28;2003;-68
2024/04/03 01:36:25;;;;;;;;;;;;;;;19.74;51.90;99951.88;2061548;28;2154;-69
2024/04/03 01:37:25;;;;;;;;;;;;;;;19.73;51.49;99947.56;2052790;28;2644;-67
2024/04/03 01:38:26;;;;;;;;;;;;;;;19.73;51.54;99947.56;2052566;28;2166;-68
2024/04/03 01:39:28;;;;;;;;;;;;;;;19.73;51.66;99941.81;2056197;28;2429;-68
2024/04/03 01:40:29;;;;;;;;;;;;;;;19.75;51.58;99941.88;2057367;28;1715;-68
2024/04/03 01:41:29;;;;;;;;;;;;;;;19.73;51.52;99950.44;2055989;28;1928;-68
2024/04/03 01:42:30;;;;;;;;;;;;;;;19.74;51.48;99946.16;2057369;28;1880;-69
2024/04/03 01:43:30;;;;;;;;;;;;;;;19.74;51.59;99946.16;2058889;28;1703;-68
2024/04/03 01:44:31;;;;;;;;;;;;;;;19.73;51.77;99944.69;2054588;28;2067;-68
2024/04/03 01:45:31;;;;;;;;;;;;;;;19.73;51.76;99956.91;2049451;28;2175;-69
2024/04/03 01:46:31;;;;;;;;;;;;;;;19.73;51.61;99950.44;2048210;28;1866;-69
2024/04/03 01:47:32;;;;;;;;;;;;;;;19.72;51.76;99949.66;2058318;28;2518;-69
2024/04/03 01:48:32;;;;;;;;;;;;;;;19.73;51.59;99944.69;2058548;28;2567;-68
2024/04/03 01:49:33;;;;;;;;;;;;;;;19.72;51.91;99937.44;2050792;28;2191;-69
2024/04/03 01:50:37;;;;;;;;;;;;;;;19.73;51.62;99944.69;2057394;28;2157;-69
2024/04/03 01:51:37;;;;;;;;;;;;;;;19.72;51.80;99943.94;2058192;28;2217;-69
2024/04/03 01:52:38;;;;;;;;;;;;;;;19.73;51.61;99947.56;2050899;28;2358;-68
2024/04/03 01:53:38;;;;;;;;;;;;;;;19.71;51.50;99947.47;2058795;28;2058;-68
2024/04/03 01:54:38;;;;;;;;;;;;;;;19.73;51.69;99944.69;2060281;28;2536;-68
2024/04/03 01:55:39;;;;;;;;;;;;;;;19.71;51.67;99944.63;2053053;28;1651;-68
2024/04/03 01:56:39;;;;;;;;;;;;;;;19.72;51.66;99946.81;2050727;28;1689;-68
2024/04/03 01:57:39;;;;;;;;;;;;;;;19.72;51.59;99955.41;2049985;28;2524;-69
2024/04/03 01:58:42;;;;;;;;;;;;;;;19.70;51.91;99946.75;2051477;28;2470;-68
2024/04/03 01:59:42;;;;;;;;;;;;;;;19.70;51.69;99946.75;2059506;28;2337;-69
2024/04/03 02:00:42;;;;;;;;;;;;;;;19.72;51.58;99948.94;2052258;28;6129;-69
2024/04/03 02:01:43;;;;;;;;;;;;;;;19.71;51.79;99947.47;2059633;28;2027;-69
2024/04/03 02:02:43;;;;;;;;;;;;;;;19.71;51.89;99950.34;2055457;28;1738;-68
2024/04/03 02:03:44;;;;;;;;;;;;;;;19.71;51.79;99950.34;2047910;28;2049;-68
2024/04/03 02:04:44;;;;;;;;;;;;;;;19.71;51.76;99947.47;2050456;28;1640;-69
2024/04/03 02:05:45;;;;;;;;;;;;;;;19.71;51.55;99947.47;2052913;28;2353;-69
2024/04/03 02:06:46;;;;;;;;;;;;;;;19.70;51.64;99946.00;2054250;28;2162;-68
2024/04/03 02:07:46;;;;;;;;;;;;;;;19.69;51.66;99950.28;2050457;28;2520;-68
2024/04/03 02:08:47;;;;;;;;;;;;;;;19.70;51.75;99946.75;2047310;28;1610;-69
2024/04/03 02:09:47;;;;;;;;;;;;;;;19.70;51.70;99943.88;2059276;28;2522;-68
2024/04/03 02:10:49;;;;;;;;;;;;;;;19.71;51.56;99947.47;2052804;28;1930;-69
2024/04/03 02:11:49;;;;;;;;;;;;;;;19.70;51.64;99946.00;2053278;28;1697;-68
2024/04/03 02:12:50;;;;;;;;;;;;;;;19.70;51.78;99946.00;2048987;28;2073;-68
2024/04/03 02:13:50;;;;;;;;;;;;;;;19.69;51.78;99944.53;2060148;28;2103;-68
2024/04/03 02:14:51;;;;;;;;;;;;;;;19.69;51.51;99938.78;2059761;28;1931;-68
2024/04/03 02:15:51;;;;;;;;;;;;;;;19.69;51.80;99941.66;2051844;28;2076;-69
2024/04/03 02:16:52;;;;;;;;;;;;;;;19.69;51.96;99927.31;2052761;28;2139;-69
2024/04/03 02:17:52;;;;;;;;;;;;;;;19.71;51.75;99938.88;2048937;28;2365;-68
2024/04/03 02:18:53;;;;;;;;;;;;;;;19.69;51.88;99935.94;2052726;28;2457;-68
2024/04/03 02:19:53;;;;;;;;;;;;;;;19.70;51.84;99934.50;2052704;28;1664;-69
2024/04/03 02:20:53;;;;;;;;;;;;;;;19.68;51.84;99932.28;2058424;28;2043;-68
2024/04/03 02:21:54;;;;;;;;;;;;;;;19.69;51.57;99941.66;2058534;28;2139;-68
2024/04/03 02:22:54;;;;;;;;;;;;;;;19.67;51.72;99937.28;2046214;28;2839;-68
2024/04/03 02:23:54;;;;;;;;;;;;;;;19.69;51.73;99930.19;2058879;28;2449;-68
2024/04/03 02:24:55;;;;;;;;;;;;;;;19.68;51.93;99926.56;2057453;28;1647;-69
2024/04/03 02:25:55;;;;;;;;;;;;;;;19.69;51.66;99938.78;2053181;28;1633;-68
2024/04/03 02:26:56;;;;;;;;;;;;;;;19.68;51.63;99932.28;2048174;28;2135;-68
2024/04/03 02:27:56;;;;;;;;;;;;;;;19.68;51.80;99920.81;2054825;28;2512;-68
2024/04/03 02:28:56;;;;;;;;;;;;;;;19.67;51.72;99925.78;2058233;28;2095;-69
2024/04/03 02:29:57;;;;;;;;;;;;;;;19.67;51.71;99931.53;2048747;28;1659;-70
2024/04/03 02:31:00;;;;;;;;;;;;;;;19.67;51.89;99925.06;2049543;28;6030;-68
2024/04/03 02:32:01;;;;;;;;;;;;;;;19.67;51.66;99928.66;2062662;28;1947;-69
2024/04/03 02:33:01;;;;;;;;;;;;;;;19.66;51.75;99927.22;2056419;28;2432;-69
2024/04/03 02:34:02;;;;;;;;;;;;;;;19.66;51.79;99930.09;2059476;28;2145;-68
2024/04/03 02:35:03;;;;;;;;;;;;;;;19.66;51.54;99930.09;2053670;28;1911;-69
2024/04/03 02:36:10;;;;;;;;;;;;;;;19.66;51.53;99935.09;2050684;28;1902;-68
2024/04/03 02:37:10;;;;;;;;;;;;;;;19.65;51.80;99928.63;2057399;28;2131;-68
2024/04/03 02:38:10;;;;;;;;;;;;;;;19.66;51.68;99929.34;2054744;28;2246;-68
2024/04/03 02:39:11;;;;;;;;;;;;;;;19.67;51.87;99930.81;2048273;28;1969;-69
2024/04/03 02:40:11;;;;;;;;;;;;;;;19.66;51.54;99930.09;2049256;28;1831;-68
2024/04/03 02:41:12;;;;;;;;;;;;;;;19.65;51.55;99931.50;2049265;28;2001;-68
2024/04/03 02:42:12;;;;;;;;;;;;;;;19.64;51.66;99935.75;2052362;28;2197;-68
2024/04/03 02:43:13;;;;;;;;;;;;;;;19.64;51.61;99921.38;2052134;28;2128;-69
2024/04/03 02:44:13;;;;;;;;;;;;;;;19.65;51.60;99922.88;2050097;28;1867;-68
2024/04/03 02:45:14;;;;;;;;;;;;;;;19.65;51.61;99928.63;2053085;28;2140;-69
2024/04/03 02:46:14;;;;;;;;;;;;;;;19.66;51.59;99932.94;2055311;28;1903;-68
2024/04/03 02:47:14;;;;;;;;;;;;;;;19.66;51.51;99930.09;2058844;28;2091;-69
2024/04/03 02:48:15;;;;;;;;;;;;;;;19.65;51.45;99928.63;2050829;28;2367;-68
2024/04/03 02:49:16;;;;;;;;;;;;;;;19.66;51.62;99927.22;2057824;28;1912;-69
2024/04/03 02:50:17;;;;;;;;;;;;;;;19.66;51.34;99929.34;2056516;28;1750;-69
2024/04/03 02:51:17;;;;;;;;;;;;;;;19.67;51.33;99925.06;2047457;28;2110;-69
2024/04/03 02:52:17;;;;;;;;;;;;;;;19.67;51.48;99925.78;2059250;28;2197;-68
2024/04/03 02:53:18;;;;;;;;;;;;;;;19.67;51.27;99925.06;2060931;28;2391;-68
2024/04/03 02:54:18;;;;;;;;;;;;;;;19.67;51.24;99914.31;2050564;28;2059;-68
2024/04/03 02:55:19;;;;;;;;;;;;;;;19.68;51.28;99917.94;2048863;28;1910;-69
2024/04/03 02:56:19;;;;;;;;;;;;;;;19.69;51.20;99921.56;2059396;28;1640;-68
2024/04/03 02:57:19;;;;;;;;;;;;;;;19.69;51.21;99922.28;2055156;28;2076;-68
2024/04/03 02:58:20;;;;;;;;;;;;;;;19.70;51.23;99917.28;2049193;28;2733;-69
2024/04/03 02:59:20;;;;;;;;;;;;;;;19.71;51.18;99930.25;2052931;28;2498;-68
2024/04/03 03:00:21;;;;;;;;;;;;;;;19.72;51.32;99920.22;2050079;28;7057;-68
2024/04/03 03:01:21;;;;;;;;;;;;;;;19.73;51.19;99915.97;2061343;28;1876;-69
2024/04/03 03:02:21;;;;;;;;;;;;;;;19.73;51.08;99921.72;2057308;28;1885;-69
2024/04/03 03:03:25;;;;;;;;;;;;;;;19.73;51.12;99922.44;2051474;28;2088;-69
2024/04/03 03:04:26;;;;;;;;;;;;;;;19.74;51.26;99920.28;2062503;28;2209;-68
2024/04/03 03:05:26;;;;;;;;;;;;;;;19.74;51.09;99917.41;2056888;28;2471;-69
2024/04/03 03:06:27;;;;;;;;;;;;;;;19.75;51.18;99913.16;2057564;28;2678;-69
2024/04/03 03:07:27;;;;;;;;;;;;;;;19.75;51.01;99913.16;2049072;28;1937;-68
2024/04/03 03:08:29;;;;;;;;;;;;;;;19.76;51.05;99923.97;2061647;28;1871;-68
2024/04/03 03:09:30;;;;;;;;;;;;;;;19.76;51.04;99921.09;2062049;28;2460;-68
2024/04/03 03:10:30;;;;;;;;;;;;;;;19.76;51.06;99914.63;2054604;28;1952;-68
2024/04/03 03:11:30;;;;;;;;;;;;;;;19.77;51.27;99916.06;2053533;28;1875;-68
2024/04/03 03:12:31;;;;;;;;;;;;;;;19.76;51.32;99920.38;2052548;28;2099;-68
2024/04/03 03:13:31;;;;;;;;;;;;;;;19.76;51.22;99915.34;2052022;28;2037;-68
2024/04/03 03:14:32;;;;;;;;;;;;;;;19.77;51.08;99921.81;2060167;28;1980;-69
2024/04/03 03:15:32;;;;;;;;;;;;;;;19.75;51.29;99916.03;2058105;28;2134;-69
2024/04/03 03:16:32;;;;;;;;;;;;;;;19.76;51.15;99923.25;2049915;28;2631;-68
2024/04/03 03:17:33;;;;;;;;;;;;;;;19.75;51.09;99919.63;2056269;28;2144;-69
2024/04/03 03:18:33;;;;;;;;;;;;;;;19.76;51.02;99920.38;2062921;28;1651;-68
2024/04/03 03:19:34;;;;;;;;;;;;;;;19.76;51.18;99928.97;2052868;28;2236;-69
2024/04/03 03:20:34;;;;;;;;;;;;;;;19.76;51.11;99928.97;2052273;28;1862;-69
2024/04/03 03:21:34;;;;;;;;;;;;;;;19.75;51.27;99925.38;2061648;28;2035;-68
2024/04/03 03:22:35;;;;;;;;;;;;;;;19.75;51.13;99928.25;2057486;28;1866;-68
2024/04/03 03:23:35;;;;;;;;;;;;;;;19.76;50.90;99934.72;2056165;28;2281;-67
2024/04/03 03:24:36;;;;;;;;;;;;;;;19.76;51.08;99931.84;2059462;28;1888;-69
2024/04/03 03:25:36;;;;;;;;;;;;;;;19.77;51.20;99930.44;2056611;28;2074;-68
2024/04/03 03:26:36;;;;;;;;;;;;;;;19.78;51.22;99929.06;2052357;28;2128;-69
2024/04/03 03:27:37;;;;;;;;;;;;;;;19.77;51.23;99933.31;2055737;28;2162;-69
2024/04/03 03:28:38;;;;;;;;;;;;;;;19.77;51.35;99930.44;2056794;28;2107;-69
2024/04/03 03:29:38;;;;;;;;;;;;;;;19.79;51.14;99933.38;2057774;28;2260;-69
2024/04/03 03:30:38;;;;;;;;;;;;;;;19.79;51.26;99936.25;2058235;28;6177;-69
2024/04/03 03:31:39;;;;;;;;;;;;;;;19.79;51.30;99937.00;2055795;28;1747;-68
2024/04/03 03:32:39;;;;;;;;;;;;;;;19.79;51.07;99937.00;2063274;28;2142;-69
2024/04/03 03:33:41;;;;;;;;;;;;;;;19.80;51.13;99943.50;2059724;28;2311;-68
2024/04/03 03:34:41;;;;;;;;;;;;;;;19.80;51.34;99943.50;2054720;28;2001;-68
2024/04/03 03:35:42;;;;;;;;;;;;;;;19.82;51.06;99940.69;2048455;28;1792;-69
2024/04/03 03:36:42;;;;;;;;;;;;;;;19.80;51.17;99938.47;2061026;28;2060;-70
2024/04/03 03:37:45;;;;;;;;;;;;;;;19.80;51.15;99937.75;2052934;28;2453;-69
2024/04/03 03:38:45;;;;;;;;;;;;;;;19.82;51.20;99938.53;2054590;28;2021;-67
2024/04/03 03:39:45;;;;;;;;;;;;;;;19.81;51.25;99933.47;2052907;28;2527;-68
2024/04/03 03:40:46;;;;;;;;;;;;;;;19.82;51.18;99934.94;2050649;28;2143;-68
2024/04/03 03:41:46;;;;;;;;;;;;;;;19.84;51.18;99937.88;2047900;28;2572;-68
2024/04/03 03:42:47;;;;;;;;;;;;;;;19.84;51.07;99941.50;2049554;28;1688;-68
2024/04/03 03:43:47;;;;;;;;;;;;;;;19.84;51.08;99946.50;2052500;28;1859;-68
2024/04/03 03:44:49;;;;;;;;;;;;;;;19.85;51.27;99942.94;2058867;28;2595;-68
2024/04/03 03:45:50;;;;;;;;;;;;;;;19.84;51.24;99941.50;2059632;28;2535;-68
2024/04/03 03:46:50;;;;;;;;;;;;;;;19.86;51.20;99949.44;2054557;28;2020;-69
2024/04/03 03:47:51;;;;;;;;;;;;;;;19.85;51.20;99948.69;2050892;28;2606;-69
2024/04/03 03:52:49;;;;;;;;;;;;;;;19.86;51.33;99958.06;2061544;28;2518;-68
2024/04/03 03:53:49;;;;;;;;;;;;;;;19.85;51.50;99957.31;2059250;28;1989;-69
2024/04/03 03:54:50;;;;;;;;;;;;;;;19.85;51.26;99947.97;2056596;28;1931;-68
2024/04/03 03:55:50;;;;;;;;;;;;;;;19.84;51.24;99949.38;2054449;28;2400;-68
2024/04/03 03:56:51;;;;;;;;;;;;;;;19.85;51.51;99947.97;2057419;28;2955;-67
2024/04/03 03:57:51;;;;;;;;;;;;;;;19.84;51.33;99944.38;2061066;28;2552;-69
2024/04/03 03:58:51;;;;;;;;;;;;;;;19.85;51.47;99953.72;2053103;28;2150;-68
2024/04/03 03:59:52;;;;;;;;;;;;;;;19.84;51.37;99952.97;2053195;28;2267;-68
2024/04/03 04:00:52;;;;;;;;;;;;;;;19.85;51.37;99956.59;2053563;28;6049;-69
2024/04/03 04:01:53;;;;;;;;;;;;;;;19.84;51.39;99961.59;2052731;28;2385;-69
2024/04/03 04:02:53;;;;;;;;;;;;;;;19.84;51.30;99958.00;2054895;28;2033;-69
2024/04/03 04:03:54;;;;;;;;;;;;;;;19.84;51.42;99960.88;2058069;28;2210;-69
2024/04/03 04:04:54;;;;;;;;;;;;;;;19.85;51.41;99965.19;2052133;28;2476;-69
2024/04/03 04:06:01;;;;;;;;;;;;;;;19.84;51.54;99966.63;2050897;28;2381;-69
2024/04/03 04:07:01;;;;;;;;;;;;;;;19.84;51.49;99966.63;2052824;28;2286;-69
2024/04/03 04:08:02;;;;;;;;;;;;;;;19.83;51.42;99976.63;2047905;28;2376;-70
2024/04/03 04:09:02;;;;;;;;;;;;;;;19.83;51.39;99982.38;2056827;28;2096;-69
2024/04/03 04:10:03;;;;;;;;;;;;;;;19.86;51.52;99986.78;2060287;28;2573;-69
2024/04/03 04:11:06;;;;;;;;;;;;;;;19.86;51.37;99986.78;2061481;28;2123;-69
2024/04/03 04:12:07;;;;;;;;;;;;;;;19.86;51.32;99989.66;2055833;28;1589;-68
2024/04/03 04:13:07;;;;;;;;;;;;;;;19.85;51.37;99994.66;2061583;28;2229;-69
2024/04/03 04:14:07;;;;;;;;;;;;;;;19.88;51.49;99995.47;2059783;28;2198;-69
2024/04/03 04:15:08;;;;;;;;;;;;;;;19.85;51.49;100002.56;2055642;28;1910;-72
2024/04/03 04:16:08;;;;;;;;;;;;;;;19.87;51.35;100005.50;2053349;28;1723;-69
2024/04/03 04:17:09;;;;;;;;;;;;;;;19.92;51.58;99992.72;2049396;28;2414;-69
2024/04/03 04:18:10;;;;;;;;;;;;;;;19.95;51.43;99997.16;2050754;28;2484;-68
2024/04/03 04:19:11;;;;;;;;;;;;;;;19.93;51.70;100004.97;2053875;28;1807;-69
2024/04/03 04:20:12;;;;;;;;;;;;;;;19.94;51.44;100004.31;2061371;28;1538;-68
2024/04/03 04:21:12;;;;;;;;;;;;;;;19.93;51.56;100008.59;2060376;28;2515;-72
2024/04/03 04:22:12;;;;;;;;;;;;;;;19.97;51.59;100007.97;2061633;28;1619;-69
2024/04/03 04:23:13;;;;;;;;;;;;;;;19.99;51.56;100005.19;2058828;28;2430;-68
2024/04/03 04:24:14;;;;;;;;;;;;;;;20.01;51.61;100008.13;2057877;28;2540;-68
2024/04/03 04:25:15;;;;;;;;;;;;;;;19.99;51.69;100010.91;2058096;28;1589;-68
2024/04/03 04:26:15;;;;;;;;;;;;;;;19.98;51.46;100004.44;2055232;28;2475;-69
2024/04/03 04:27:16;;;;;;;;;;;;;;;19.97;51.57;100020.19;2053127;28;2595;-68
2024/04/03 04:28:16;;;;;;;;;;;;;;;19.97;51.75;100017.31;2062389;28;2597;-69
2024/04/03 04:29:16;;;;;;;;;;;;;;;19.97;51.67;100008.72;2060901;28;2491;-69
2024/04/03 04:30:17;;;;;;;;;;;;;;;19.97;51.63;100008.72;2056483;28;6295;-68
2024/04/03 04:31:17;;;;;;;;;;;;;;;19.97;51.74;100014.44;2060812;28;1859;-69
2024/04/03 04:32:18;;;;;;;;;;;;;;;19.97;51.77;100013.72;2058265;28;1744;-69
2024/04/03 04:33:18;;;;;;;;;;;;;;;19.96;51.69;100018.75;2047953;28;2046;-68
2024/04/03 04:34:18;;;;;;;;;;;;;;;19.97;51.75;100019.47;2060043;28;1858;-68
2024/04/03 04:35:19;;;;;;;;;;;;;;;19.94;51.68;100021.53;2066488;28;1914;-68
2024/04/03 04:36:21;;;;;;;;;;;;;;;19.94;51.67;100021.53;2059313;28;1808;-68
2024/04/03 04:37:22;;;;;;;;;;;;;;;19.94;51.89;100027.28;2048327;28;2152;-69
2024/04/03 04:38:24;;;;;;;;;;;;;;;19.94;51.70;100020.81;2047220;28;2482;-69
2024/04/03 04:39:24;;;;;;;;;;;;;;;19.93;51.76;100025.81;2050248;28;1662;-69
2024/04/03 04:40:24;;;;;;;;;;;;;;;19.92;51.73;100018.59;2050333;28;2565;-69
2024/04/03 04:41:25;;;;;;;;;;;;;;;19.91;51.70;100020.00;2062812;28;1960;-69
2024/04/03 04:42:25;;;;;;;;;;;;;;;19.93;51.69;100019.31;2058030;28;1848;-68
2024/04/03 04:43:27;;;;;;;;;;;;;;;19.92;51.73;100029.34;2057513;28;1677;-68
2024/04/03 04:44:27;;;;;;;;;;;;;;;19.90;51.78;100027.13;2050073;28;1575;-69
2024/04/03 04:45:27;;;;;;;;;;;;;;;19.92;51.84;100030.09;2048966;28;1946;-69
2024/04/03 04:46:28;;;;;;;;;;;;;;;19.92;51.81;100026.47;2052529;28;2187;-68
2024/04/03 04:47:28;;;;;;;;;;;;;;;19.92;51.60;100024.34;2051739;28;2103;-69
2024/04/03 04:48:30;;;;;;;;;;;;;;;19.91;51.57;100028.63;2050879;28;2398;-68
2024/04/03 04:49:30;;;;;;;;;;;;;;;19.91;51.69;100025.75;2063037;28;1752;-68
2024/04/03 04:50:30;;;;;;;;;;;;;;;19.91;51.67;100034.38;2056736;28;1631;-67
2024/04/03 04:51:31;;;;;;;;;;;;;;;19.91;51.72;100022.16;2061219;28;2435;-68
2024/04/03 04:52:31;;;;;;;;;;;;;;;19.92;51.56;100029.34;2053309;28;2421;-68
2024/04/03 04:53:32;;;;;;;;;;;;;;;19.92;51.52;100029.34;2052818;28;1668;-69
2024/04/03 04:54:32;;;;;;;;;;;;;;;19.92;51.61;100029.34;2057022;28;1664;-68
2024/04/03 04:55:32;;;;;;;;;;;;;;;19.90;51.65;100032.88;2059168;28;2174;-68
2024/04/03 04:56:33;;;;;;;;;;;;;;;19.91;51.60;100028.63;2050316;28;1648;-69
2024/04/03 04:57:33;;;;;;;;;;;;;;;19.91;51.70;100022.88;2059751;28;2215;-68
2024/04/03 04:58:34;;;;;;;;;;;;;;;19.90;51.64;100024.25;2056914;28;1713;-69
2024/04/03 04:59:34;;;;;;;;;;;;;;;19.90;51.39;100021.41;2052374;28;2175;-70
2024/04/03 05:00:34;;;;;;;;;;;;;;;19.90;51.54;100015.66;2051238;28;6179;-69
2024/04/03 05:01:36;;;;;;;;;;;;;;;19.90;51.45;100021.41;2053184;28;2187;-70
2024/04/03 05:02:37;;;;;;;;;;;;;;;19.89;51.43;100025.69;2048652;28;2382;-69
2024/04/03 05:03:37;;;;;;;;;;;;;;;19.90;51.39;100026.41;2058093;28;1610;-69
2024/04/03 05:04:37;;;;;;;;;;;;;;;19.88;51.52;100024.94;2059416;28;2039;-69
2024/04/03 05:05:38;;;;;;;;;;;;;;;19.89;51.40;100019.94;2053389;28;2131;-69
2024/04/03 05:06:38;;;;;;;;;;;;;;;19.89;51.54;100031.44;2058093;28;2084;-68
2024/04/03 05:07:39;;;;;;;;;;;;;;;19.89;51.43;100025.69;2058400;28;2566;-68
2024/04/03 05:08:39;;;;;;;;;;;;;;;19.88;51.46;100030.69;2054529;28;2563;-68
2024/04/03 05:09:40;;;;;;;;;;;;;;;19.89;51.67;100025.69;2051891;28;1891;-68
2024/04/03 05:10:40;;;;;;;;;;;;;;;19.90;51.43;100035.03;2061014;28;2525;-68
2024/04/03 05:11:41;;;;;;;;;;;;;;;19.90;51.51;100027.13;2056050;28;1924;-69
2024/04/03 05:12:42;;;;;;;;;;;;;;;19.90;51.56;100023.53;2052500;28;2160;-68
2024/04/03 05:13:42;;;;;;;;;;;;;;;19.90;51.62;100027.13;2050032;28;2299;-69
2024/04/03 05:14:43;;;;;;;;;;;;;;;19.91;51.71;100027.91;2059758;28;1919;-68
2024/04/03 05:15:45;;;;;;;;;;;;;;;19.90;51.74;100027.13;2060566;28;1857;-68
2024/04/03 05:16:45;;;;;;;;;;;;;;;19.91;51.74;100033.66;2048146;28;2529;-68
2024/04/03 05:17:45;;;;;;;;;;;;;;;19.91;51.76;100033.66;2058703;28;1972;-69
2024/04/03 05:18:47;;;;;;;;;;;;;;;19.91;51.72;100034.38;2058091;28;1796;-68
2024/04/03 05:19:47;;;;;;;;;;;;;;;19.91;51.61;100033.66;2050100;28;2195;-69
2024/04/03 05:20:48;;;;;;;;;;;;;;;19.92;51.74;100040.84;2058305;28;1870;-69
2024/04/03 05:21:48;;;;;;;;;;;;;;;19.91;51.58;100039.38;2059992;28;1859;-69
2024/04/03 05:22:49;;;;;;;;;;;;;;;19.90;51.72;100038.63;2056014;28;2315;-65